Bartonville, Texas
Current Conditions -  °F | °C
As of 6:53 AM on Thursday 30 Oct 2014 (Local Time) from KDTO Reporting Station
Clear Clear  
Wind Chill: 46°   Ceiling: Unl
Heat Index: 46°   Visibility: 10mi
Dew Point: 42°   Wind: 0mph
Humidity: 86%   Direction: NA
Pressure: 30.13"   Gusts: NA
Location:  33.108°N, 97.1641°W
Report Text: KDTO 301153Z 00000KT 10SM CLR 08/06 A3013 RMK AO2 SLP200 T00780056 10128 20072 53001
Loading
Personal Weather Stations






























Interactive Weather Map
Tropical Storm Tracking
New forecast layout! Learn more

10-Day Weather Forecast

Advertisements
Track Severe Weather on mobile